Time;durP1;ratioP1;P1;durP2;ratioP2;P2;SDS_P1;SDS_P2;PMS_P1;PMS_P2;Temp;Humidity;BMP_temperature;BMP_pressure;BME280_temperature;BME280_humidity;BME280_pressure;Samples;Min_cycle;Max_cycle;Signal;HPM_P1;HPM_P2
2023/09/12 00:00:50;;;;;;;30.35;22.35;;;;;;;18.09;73.86;100031.14;1745984;81;27588;-59
2023/09/12 00:03:22;;;;;;;33.15;23.38;;;;;;;18.08;74.21;100026.81;1745754;82;25645;-60
2023/09/12 00:05:58;;;;;;;32.20;22.77;;;;;;;18.05;74.08;100030.30;1746160;82;25134;-60
2023/09/12 00:08:25;;;;;;;29.55;23.27;;;;;;;18.02;74.19;100029.08;1746154;82;25613;-60
2023/09/12 00:11:10;;;;;;;30.43;21.90;;;;;;;18.00;74.28;100023.19;1746209;82;25498;-60
2023/09/12 00:13:42;;;;;;;30.72;23.27;;;;;;;17.99;74.36;100029.02;1746230;82;28407;-60
2023/09/12 00:16:10;;;;;;;32.55;22.82;;;;;;;17.97;74.44;100025.87;1746134;81;25406;-61
2023/09/12 00:18:39;;;;;;;32.05;23.07;;;;;;;17.95;74.62;100026.81;1746286;82;25601;-61
2023/09/12 00:21:05;;;;;;;27.80;22.30;;;;;;;17.95;74.72;100026.81;1746047;82;25518;-61
2023/09/12 00:23:32;;;;;;;29.37;22.52;;;;;;;17.95;74.88;100025.45;1746134;82;25383;-60
2023/09/12 00:25:58;;;;;;;33.42;23.32;;;;;;;17.95;74.92;100024.86;1746150;81;27131;-60
2023/09/12 00:28:25;;;;;;;33.18;22.58;;;;;;;17.97;75.00;100023.91;1746073;82;25778;-61
2023/09/12 00:30:53;;;;;;;34.15;23.83;;;;;;;17.95;74.75;100026.23;1746111;82;25615;-61
2023/09/12 00:33:20;;;;;;;32.88;23.73;;;;;;;17.92;74.60;100019.52;1746119;82;25585;-61
2023/09/12 00:35:46;;;;;;;34.10;22.70;;;;;;;17.90;74.65;100020.47;1746185;82;25436;-61
2023/09/12 00:38:12;;;;;;;29.20;22.35;;;;;;;17.86;74.75;100022.38;1746105;82;27547;-61
2023/09/12 00:40:39;;;;;;;31.37;22.82;;;;;;;17.86;74.90;100021.00;1746019;82;25567;-61
2023/09/12 00:43:05;;;;;;;29.35;21.50;;;;;;;17.86;74.88;100024.27;1746209;82;25452;-61
2023/09/12 00:45:31;;;;;;;27.07;21.17;;;;;;;17.85;74.97;100024.85;1746081;82;25598;-61
2023/09/12 00:48:02;;;;;;;31.68;23.38;;;;;;;17.82;74.60;100026.16;1746128;82;25445;-61
2023/09/12 00:50:31;;;;;;;28.92;22.95;;;;;;;17.78;74.64;100023.95;1746251;82;27623;-61
2023/09/12 00:52:58;;;;;;;27.87;22.58;;;;;;;;;;1746230;81;25496;-60
2023/09/12 00:55:24;;;;;;;30.30;23.18;;;;;;;17.72;75.06;100023.44;1746142;82;25527;-60
2023/09/12 00:57:54;;;;;;;28.62;22.02;;;;;;;17.70;75.03;100020.28;1746117;82;25471;-60
2023/09/12 01:00:21;;;;;;;30.23;23.75;;;;;;;17.68;75.25;100016.55;1746234;81;25374;-60
2023/09/12 01:02:49;;;;;;;32.73;23.90;;;;;;;17.65;75.36;100011.80;1746162;82;27488;-60
2023/09/12 01:05:16;;;;;;;34.58;23.35;;;;;;;17.61;75.75;100014.27;1746076;82;26035;-60
2023/09/12 01:07:44;;;;;;;29.77;22.75;;;;;;;17.57;75.73;100017.50;1746129;81;25560;-59
2023/09/12 01:10:12;;;;;;;31.15;23.75;;;;;;;17.52;75.58;100009.83;1746156;82;26232;-60
2023/09/12 01:12:39;;;;;;;29.40;23.35;;;;;;;17.49;75.81;100010.55;1746100;81;25400;-60
2023/09/12 01:15:14;;;;;;;29.70;24.37;;;;;;;17.47;76.19;100013.41;1746114;81;27573;-59
2023/09/12 01:17:38;;;;;;;32.03;25.00;;;;;;;17.45;77.11;100008.89;1745243;82;25451;-60
2023/09/12 01:20:09;;;;;;;34.73;23.75;;;;;;;17.44;77.25;100007.33;1741916;81;25467;-60
2023/09/12 01:22:53;;;;;;;32.83;25.27;;;;;;;17.45;78.21;100008.33;1732445;82;25614;-60
2023/09/12 01:25:54;;;;;;;29.23;24.23;;;;;;;17.44;78.00;100008.11;1732482;82;25693;-59
2023/09/12 01:28:28;;;;;;;34.08;26.17;;;;;;;17.42;77.68;100012.34;1732390;82;27494;-59
2023/09/12 01:30:54;;;;;;;33.02;24.72;;;;;;;17.40;78.88;100014.66;1731804;82;25401;-59
2023/09/12 01:33:22;;;;;;;31.85;25.23;;;;;;;17.39;78.09;100013.09;1732371;82;25547;-59
2023/09/12 01:35:48;;;;;;;33.42;24.10;;;;;;;17.38;78.10;100011.50;1732361;82;25488;-59
2023/09/12 01:38:16;;;;;;;32.95;25.92;;;;;;;17.36;78.41;100012.64;1732370;82;25382;-58
2023/09/12 01:40:52;;;;;;;34.10;25.23;;;;;;;17.37;78.62;100017.55;1732363;82;28325;-59
2023/09/12 01:43:22;;;;;;;29.27;23.32;;;;;;;17.36;78.46;100013.22;1732302;82;25537;-59
2023/09/12 01:45:54;;;;;;;35.20;24.55;;;;;;;17.34;78.21;100012.80;1732442;82;25489;-59
2023/09/12 01:48:26;;;;;;;31.20;24.20;;;;;;;17.34;78.25;100014.16;1732403;82;26352;-59
2023/09/12 01:50:54;;;;;;;28.90;24.63;;;;;;;17.32;78.14;100014.52;1732410;82;25449;-59
2023/09/12 01:53:20;;;;;;;30.77;24.43;;;;;;;17.32;78.19;100016.48;1732396;82;27597;-59
2023/09/12 01:55:49;;;;;;;32.10;25.15;;;;;;;17.32;78.04;100011.01;1732305;82;25862;-59
2023/09/12 01:58:17;;;;;;;35.23;24.55;;;;;;;17.34;78.04;100011.44;1732457;82;25599;-59
2023/09/12 02:00:43;;;;;;;30.55;23.87;;;;;;;17.34;78.08;100012.80;1732261;82;27680;-59
2023/09/12 02:03:09;;;;;;;33.65;24.07;;;;;;;17.33;78.34;100012.57;1703494;82;25593;-60
2023/09/12 02:05:39;;;;;;;31.30;24.95;;;;;;;17.32;78.32;100020.58;1732386;82;27775;-60
2023/09/12 02:08:06;;;;;;;36.15;25.12;;;;;;;17.28;78.54;100018.33;1732664;82;25381;-60
2023/09/12 02:10:33;;;;;;;31.73;24.80;;;;;;;17.28;78.44;100017.77;1732364;82;25460;-60
2023/09/12 02:13:00;;;;;;;32.63;25.30;;;;;;;17.28;78.50;100014.23;1732429;82;25610;-59
2023/09/12 02:15:26;;;;;;;33.85;25.70;;;;;;;17.26;78.37;100019.27;1732369;82;25381;-59
2023/09/12 02:17:53;;;;;;;29.40;24.67;;;;;;;17.24;78.61;100015.53;1732396;82;29622;-59
2023/09/12 02:20:20;;;;;;;33.28;24.45;;;;;;;17.24;78.65;100018.85;1732083;82;25405;-60
2023/09/12 02:22:47;;;;;;;32.42;24.37;;;;;;;17.25;78.70;100019.08;1732327;82;25606;-58
2023/09/12 02:25:13;;;;;;;34.63;26.68;;;;;;;17.26;78.94;100019.27;1732412;82;25488;-59
2023/09/12 02:27:39;;;;;;;37.05;27.87;;;;;;;17.24;78.72;100020.22;1732457;82;25402;-59
2023/09/12 02:30:09;;;;;;;39.53;28.70;;;;;;;17.23;78.76;100016.70;1732445;82;28077;-59
2023/09/12 02:32:35;;;;;;;;;;;;;;;17.23;78.89;100013.97;1734907;82;25543;-60
2023/09/12 02:35:01;;;;;;;33.53;27.07;;;;;;;17.24;79.23;100017.48;1732351;82;25712;-60
2023/09/12 02:37:29;;;;;;;34.92;26.97;;;;;;;17.25;79.12;100020.44;1732336;82;25586;-60
2023/09/12 02:39:55;;;;;;;35.17;26.48;;;;;;;17.26;79.24;100022.01;1732321;82;25524;-60
2023/09/12 02:42:21;;;;;;;35.50;26.73;;;;;;;17.24;78.97;100020.22;1732322;82;27481;-59
2023/09/12 02:44:48;;;;;;;34.78;28.38;;;;;;;17.24;79.07;100022.95;1732355;82;25382;-60
2023/09/12 02:47:16;;;;;;;35.38;27.35;;;;;;;17.25;79.08;100023.17;1732351;82;25424;-60
2023/09/12 02:49:42;;;;;;;41.60;28.55;;;;;;;17.24;78.97;100025.68;1732260;82;25565;-60
2023/09/12 02:52:09;;;;;;;33.85;26.52;;;;;;;17.19;78.68;100026.75;1732384;82;25385;-60
2023/09/12 02:54:37;;;;;;;36.90;27.32;;;;;;;17.17;78.82;100026.33;1732367;82;27438;-60
2023/09/12 02:57:05;;;;;;;33.45;25.17;;;;;;;17.16;79.06;100024.73;1732229;82;25397;-60
2023/09/12 02:59:33;;;;;;;35.35;25.32;;;;;;;17.14;78.96;100029.78;1732335;82;25617;-60
2023/09/12 03:01:59;;;;;;;33.15;25.32;;;;;;;17.10;78.72;100024.24;1732227;82;25489;-60
2023/09/12 03:04:28;;;;;;;30.60;25.23;;;;;;;17.07;78.72;100029.05;1732385;82;25576;-60
2023/09/12 03:06:54;;;;;;;39.08;27.05;;;;;;;17.03;78.49;100032.30;1732489;82;27619;-60
2023/09/12 03:09:22;;;;;;;32.08;25.12;;;;;;;16.98;78.43;100035.31;1732213;82;25832;-60
2023/09/12 03:11:50;;;;;;;31.60;26.12;;;;;;;16.96;78.24;100026.69;1732292;82;25568;-60
2023/09/12 03:14:16;;;;;;;31.90;25.20;;;;;;;16.93;78.24;100031.50;1732375;82;26114;-60
2023/09/12 03:16:42;;;;;;;28.38;24.43;;;;;;;16.90;78.44;100028.11;1732335;82;25384;-60
2023/09/12 03:19:08;;;;;;;32.25;24.32;;;;;;;16.86;78.21;100026.67;1732336;82;28100;-60
2023/09/12 03:21:34;;;;;;;31.37;23.98;;;;;;;16.83;78.46;100025.99;1728503;81;25554;-60
2023/09/12 03:24:03;;;;;;;32.28;23.80;;;;;;;16.79;78.35;100033.33;1726822;83;25448;-59
2023/09/12 03:26:29;;;;;;;31.50;24.25;;;;;;;16.74;78.28;100029.52;1727083;83;25562;-58
2023/09/12 03:28:55;;;;;;;30.08;23.45;;;;;;;16.69;78.61;100025.11;1726852;83;25377;-60
2023/09/12 03:31:22;;;;;;;28.47;23.42;;;;;;;16.66;78.15;100026.41;1726809;83;27589;-59
2023/09/12 03:33:50;;;;;;;30.02;23.45;;;;;;;16.61;78.18;100026.87;1726736;83;25383;-58
2023/09/12 03:36:18;;;;;;;32.30;24.10;;;;;;;16.57;78.08;100031.48;1726970;83;25570;-59
2023/09/12 03:38:45;;;;;;;34.08;23.65;;;;;;;16.53;78.33;100034.72;1726831;83;26334;-59
2023/09/12 03:41:15;;;;;;;34.20;24.50;;;;;;;16.51;78.33;100033.47;1727047;83;25438;-60
2023/09/12 03:43:41;;;;;;;34.30;24.43;;;;;;;16.46;78.45;100033.16;1727037;83;27487;-60
2023/09/12 03:46:10;;;;;;;30.90;24.12;;;;;;;16.44;78.40;100032.73;1726892;83;27265;-59
2023/09/12 03:48:36;;;;;;;28.42;24.02;;;;;;;16.41;78.57;100037.53;1727018;83;25479;-60
2023/09/12 03:51:04;;;;;;;32.60;24.63;;;;;;;16.39;78.63;100038.47;1727000;83;27609;-59
2023/09/12 03:53:32;;;;;;;31.93;23.55;;;;;;;16.38;78.73;100048.59;1727025;83;25559;-59
2023/09/12 03:56:00;;;;;;;32.00;25.00;;;;;;;16.34;78.66;100040.88;1727019;83;27473;-59
2023/09/12 03:58:28;;;;;;;28.52;23.52;;;;;;;16.32;78.81;100047.86;1726927;83;25984;-59
2023/09/12 04:00:54;;;;;;;32.38;24.35;;;;;;;16.29;78.81;100039.00;1726976;83;25600;-59
2023/09/12 04:03:21;;;;;;;32.88;24.65;;;;;;;16.26;78.77;100036.42;1726919;83;25539;-59
2023/09/12 04:05:50;;;;;;;31.87;24.82;;;;;;;16.24;78.78;100038.69;1727022;83;25641;-60
2023/09/12 04:08:16;;;;;;;31.73;25.05;;;;;;;16.22;78.90;100042.35;1727162;83;27642;-59
2023/09/12 04:10:45;;;;;;;31.93;25.05;;;;;;;16.19;78.85;100038.96;1726980;83;25378;-60
2023/09/12 04:13:11;;;;;;;32.93;25.02;;;;;;;16.17;79.14;100037.95;1727093;83;25374;-60
2023/09/12 04:15:37;;;;;;;32.90;24.25;;;;;;;16.15;79.54;100038.88;1727046;83;26048;-60
2023/09/12 04:18:06;;;;;;;31.82;25.40;;;;;;;16.13;79.28;100043.12;1727133;83;25549;-60
2023/09/12 04:20:32;;;;;;;32.15;25.10;;;;;;;16.11;79.99;100039.95;1727014;81;27453;-61
2023/09/12 04:23:03;;;;;;;34.48;25.27;;;;;;;16.10;80.47;100041.88;1702181;83;25585;-60
2023/09/12 04:25:33;;;;;;;31.23;23.55;;;;;;;16.10;80.75;100039.72;1727061;83;25402;-60
2023/09/12 04:28:01;;;;;;;36.08;28.30;;;;;;;16.09;80.29;100038.13;1727086;83;25543;-60
2023/09/12 04:30:27;;;;;;;40.77;29.80;;;;;;;16.06;80.76;100039.64;1727326;83;25542;-60
2023/09/12 04:32:54;;;;;;;36.42;30.27;;;;;;;16.07;81.39;100043.93;1727032;83;28076;-60
2023/09/12 04:35:20;;;;;;;37.40;28.70;;;;;;;16.09;82.26;100039.49;1726825;83;25453;-58
2023/09/12 04:37:48;;;;;;;34.70;26.60;;;;;;;16.12;82.34;100046.39;1727002;83;25612;-61
2023/09/12 04:40:16;;;;;;;36.58;28.45;;;;;;;16.13;82.06;100045.27;1726940;83;26274;-60
2023/09/12 04:42:42;;;;;;;33.65;26.27;;;;;;;16.17;82.42;100043.98;1727077;83;25199;-60
2023/09/12 04:45:11;;;;;;;34.80;25.27;;;;;;;16.20;82.45;100046.02;1726980;83;28088;-60
2023/09/12 04:47:37;;;;;;;31.62;25.37;;;;;;;16.23;82.25;100048.83;1727129;83;25998;-58
2023/09/12 04:50:07;;;;;;;42.88;29.00;;;;;;;16.26;82.14;100056.89;1726898;83;25436;-60
2023/09/12 04:52:33;;;;;;;33.20;24.70;;;;;;;16.29;82.53;100052.06;1726961;83;25610;-60
2023/09/12 04:55:01;;;;;;;34.80;25.02;;;;;;;16.32;82.46;100051.95;1726962;83;25421;-59
2023/09/12 04:57:30;;;;;;;33.33;28.35;;;;;;;16.37;82.60;100049.73;1726961;83;27536;-64
2023/09/12 04:59:55;;;;;;;35.65;28.32;;;;;;;16.42;82.77;100052.77;1726410;83;25550;-65
2023/09/12 05:02:22;;;;;;;36.17;26.62;;;;;;;16.49;83.39;100050.20;1726885;83;25538;-64
2023/09/12 05:04:48;;;;;;;34.55;26.87;;;;;;;16.55;83.07;100052.08;1726854;83;25488;-65
2023/09/12 05:07:16;;;;;;;35.98;26.20;;;;;;;16.60;83.01;100053.98;1727087;83;25581;-65
2023/09/12 05:09:42;;;;;;;37.23;28.30;;;;;;;16.66;83.11;100059.17;1727030;83;28066;-63
2023/09/12 05:12:11;;;;;;;39.35;30.05;;;;;;;16.70;82.89;100049.92;1726951;83;25452;-61
2023/09/12 05:14:38;;;;;;;34.23;25.82;;;;;;;16.76;83.36;100053.94;1726777;83;25607;-61
2023/09/12 05:17:04;;;;;;;38.80;29.05;;;;;;;16.81;83.55;100050.92;1726510;83;25556;-61
2023/09/12 05:19:31;;;;;;;38.25;29.35;;;;;;;16.88;84.34;100060.47;1726956;83;25618;-62
2023/09/12 05:21:59;;;;;;;39.80;29.32;;;;;;;16.93;84.75;100055.50;1729597;82;27502;-61
2023/09/12 05:24:25;;;;;;;35.92;29.67;;;;;;;16.96;84.59;100053.43;1732338;82;25870;-61
2023/09/12 05:26:51;;;;;;;40.43;31.80;;;;;;;17.04;84.97;100059.04;1732388;82;25591;-60
2023/09/12 05:29:17;;;;;;;36.55;30.10;;;;;;;17.09;85.16;100062.27;1732382;82;25535;-60
2023/09/12 05:31:44;;;;;;;45.98;31.33;;;;;;;17.15;85.54;100058.11;1732422;82;25627;-60
2023/09/12 05:34:10;;;;;;;40.23;31.80;;;;;;;17.24;85.67;100063.95;1732311;82;27475;-61
2023/09/12 05:36:36;;;;;;;47.25;35.92;;;;;;;17.33;85.96;100065.32;1732382;82;25199;-61
2023/09/12 05:39:03;;;;;;;48.15;34.63;;;;;;;17.44;86.35;100069.62;1732501;82;25612;-62
2023/09/12 05:41:30;;;;;;;42.65;34.00;;;;;;;17.58;86.86;100071.84;1732444;82;25656;-61
2023/09/12 05:43:57;;;;;;;42.35;32.75;;;;;;;17.74;86.77;100073.09;1732496;82;25398;-63
2023/09/12 05:46:23;;;;;;;37.83;31.73;;;;;;;17.87;86.82;100068.30;1732447;82;27515;-61
2023/09/12 05:48:49;;;;;;;41.63;30.97;;;;;;;18.01;87.08;100068.53;1732370;82;25460;-61
2023/09/12 05:51:15;;;;;;;45.85;32.98;;;;;;;18.15;86.73;100069.38;1732424;82;25441;-61
2023/09/12 05:53:41;;;;;;;40.33;31.12;;;;;;;18.28;86.60;100068.00;1732397;82;25493;-61
2023/09/12 05:56:08;;;;;;;41.88;31.40;;;;;;;18.43;86.62;100069.03;1732479;82;25535;-61
2023/09/12 05:58:35;;;;;;;37.63;29.75;;;;;;;18.58;86.52;100070.63;1732433;82;27617;-60
2023/09/12 06:01:02;;;;;;;40.33;29.30;;;;;;;18.73;86.30;100067.50;1732302;82;25542;-60
2023/09/12 06:03:29;;;;;;;36.70;29.52;;;;;;;18.90;86.60;100068.38;1732391;82;25617;-60
2023/09/12 06:05:55;;;;;;;35.85;28.92;;;;;;;19.07;86.37;100067.59;1732329;82;25569;-60
2023/09/12 06:08:23;;;;;;;34.75;27.90;;;;;;;19.19;85.60;100075.02;1732350;82;25404;-60
2023/09/12 06:10:53;;;;;;;38.75;27.42;;;;;;;19.33;85.46;100074.98;1732505;82;27488;-61
2023/09/12 06:13:18;;;;;;;37.25;27.73;;;;;;;19.51;85.17;100073.80;1731458;82;25436;-62
2023/09/12 06:15:44;;;;;;;34.73;27.82;;;;;;;19.72;85.13;100071.89;1732429;82;25626;-60
2023/09/12 06:18:10;;;;;;;34.13;25.92;;;;;;;19.93;84.67;100067.22;1732404;82;26504;-60
2023/09/12 06:20:38;;;;;;;34.83;25.85;;;;;;;20.12;84.19;100067.57;1732482;82;25588;-61
2023/09/12 06:23:05;;;;;;;36.77;25.85;;;;;;;20.27;83.16;100072.61;1743586;82;27473;-61
2023/09/12 06:25:31;;;;;;;34.08;26.45;;;;;;;20.36;81.90;100073.06;1746044;82;25752;-61
2023/09/12 06:27:57;;;;;;;35.70;26.87;;;;;;;20.45;82.00;100070.79;1746120;82;25642;-61
2023/09/12 06:30:24;;;;;;;36.48;25.35;;;;;;;20.60;81.73;100078.55;1746024;82;25646;-59
2023/09/12 06:32:50;;;;;;;37.50;27.15;;;;;;;20.76;81.68;100081.63;1746163;81;25408;-63
2023/09/12 06:35:18;;;;;;;34.70;26.27;;;;;;;20.97;82.01;100073.48;1746233;82;28202;-61
2023/09/12 06:37:46;;;;;;;36.05;25.97;;;;;;;21.23;82.25;100087.56;1746078;81;25719;-62
2023/09/12 06:40:13;;;;;;;31.50;25.20;;;;;;;21.55;81.65;100083.38;1746170;82;25558;-61
2023/09/12 06:42:39;;;;;;;36.13;25.15;;;;;;;21.87;81.73;100076.56;1745998;82;25500;-61
2023/09/12 06:45:08;;;;;;;30.48;23.70;;;;;;;22.22;80.34;100091.55;1746138;82;25475;-62
2023/09/12 06:47:34;;;;;;;30.70;23.05;;;;;;;22.51;79.53;100087.44;1745920;81;27573;-62
2023/09/12 06:50:02;;;;;;;30.25;22.52;;;;;;;22.82;77.85;100091.91;1744519;81;25744;-62
2023/09/12 06:52:29;;;;;;;27.20;22.67;;;;;;;23.06;77.35;100082.80;1746306;82;25720;-61
2023/09/12 06:54:55;;;;;;;29.42;21.20;;;;;;;23.37;76.64;100087.81;1746074;82;25858;-61
2023/09/12 06:57:21;;;;;;;30.10;22.05;;;;;;;23.63;75.17;100083.15;1746182;82;25627;-61
2023/09/12 06:59:49;;;;;;;26.15;21.75;;;;;;;23.89;75.01;100088.52;1746074;82;27650;-61
2023/09/12 07:02:18;;;;;;;30.92;21.15;;;;;;;24.18;74.08;100084.98;1745945;82;25461;-61
2023/09/12 07:04:44;;;;;;;23.12;20.05;;;;;;;24.42;72.60;100083.19;1746047;82;25578;-62
2023/09/12 07:07:11;;;;;;;25.43;22.02;;;;;;;24.69;71.93;100083.35;1745995;82;25452;-59
2023/09/12 07:09:37;;;;;;;22.20;17.90;;;;;;;25.03;71.23;100088.13;1746090;82;25570;-60
2023/09/12 07:12:06;;;;;;;22.85;18.40;;;;;;;25.33;69.15;100088.75;1746063;81;28162;-60
2023/09/12 07:14:33;;;;;;;21.57;18.23;;;;;;;25.51;68.00;100092.69;1746080;82;25436;-60
2023/09/12 07:16:59;;;;;;;29.42;17.67;;;;;;;25.72;66.47;100090.81;1746219;82;25564;-61
2023/09/12 07:19:26;;;;;;;23.57;16.62;;;;;;;25.89;65.69;100092.53;1746220;82;25520;-61
2023/09/12 07:21:52;;;;;;;21.50;16.30;;;;;;;26.07;64.44;100096.45;1743609;82;25843;-61
2023/09/12 07:24:27;;;;;;;;;;;;;;;26.22;64.31;100096.22;1735049;82;28596;-62
2023/09/12 07:26:53;;;;;;;24.32;16.25;;;;;;;26.41;62.96;100098.28;1732179;82;25663;-62
2023/09/12 07:29:20;;;;;;;20.27;15.98;;;;;;;26.69;63.61;100092.68;1732160;82;25479;-62
2023/09/12 07:31:54;;;;;;;24.55;16.32;;;;;;;27.06;62.75;100092.95;1732120;82;25685;-63
2023/09/12 07:34:24;;;;;;;19.40;15.90;;;;;;;27.45;62.05;100095.55;1732332;82;25713;-63
2023/09/12 07:36:53;;;;;;;23.12;16.37;;;;;;;27.75;60.03;100095.88;1732381;82;27479;-65
2023/09/12 07:39:20;;;;;;;20.80;15.60;;;;;;;28.11;60.32;100090.90;1732383;82;25636;-62
2023/09/12 07:41:48;;;;;;;22.15;16.17;;;;;;;28.57;60.18;100094.34;1732511;82;25468;-62
2023/09/12 07:44:16;;;;;;;20.55;15.08;;;;;;;28.96;59.06;100086.34;1732577;82;25867;-62
2023/09/12 07:46:45;;;;;;;20.88;15.88;;;;;;;29.35;58.22;100089.22;1732760;82;25460;-63
2023/09/12 07:49:12;;;;;;;19.82;14.93;;;;;;;29.66;57.06;100086.70;1732731;82;27497;-62
2023/09/12 07:51:38;;;;;;;18.30;14.65;;;;;;;30.05;56.19;100082.50;1732506;82;25511;-62
2023/09/12 07:54:07;;;;;;;17.92;14.05;;;;;;;30.54;55.71;100087.66;1732469;82;25686;-63
2023/09/12 07:56:33;;;;;;;25.40;14.03;;;;;;;31.08;54.88;100092.13;1732682;82;25501;-62
2023/09/12 07:59:00;;;;;;;15.23;13.58;;;;;;;31.61;53.25;100086.38;1732501;82;25633;-62
2023/09/12 08:01:27;;;;;;;18.73;13.93;;;;;;;32.10;49.61;100091.23;1732450;82;28296;-62
2023/09/12 08:03:56;;;;;;;17.80;13.05;;;;;;;32.10;49.61;100091.23;1732594;82;25621;-63
2023/09/12 08:06:24;;;;;;;21.48;12.95;;;;;;;32.37;49.23;100091.13;1732716;82;25390;-64
2023/09/12 08:08:51;;;;;;;17.92;12.63;;;;;;;32.63;48.28;100087.42;1732538;82;25628;-63
2023/09/12 08:11:18;;;;;;;17.23;13.22;;;;;;;33.00;47.47;100092.20;1732462;82;25630;-68
2023/09/12 08:13:49;;;;;;;18.10;12.58;;;;;;;33.30;46.15;100090.45;1732589;82;27466;-64
2023/09/12 08:16:19;;;;;;;18.17;12.73;;;;;;;33.41;45.77;100089.34;1732422;82;25197;-64
2023/09/12 08:18:45;;;;;;;17.82;13.60;;;;;;;33.70;45.51;100088.01;1732451;82;25415;-62
2023/09/12 08:21:15;;;;;;;15.03;12.07;;;;;;;34.00;44.83;100086.75;1732389;82;26086;-62
2023/09/12 08:23:46;;;;;;;18.55;13.32;;;;;;;34.30;43.97;100086.91;1732386;81;25440;-62
2023/09/12 08:26:16;;;;;;;13.88;12.00;;;;;;;34.50;42.25;100087.06;1732432;82;28540;-63
2023/09/12 08:28:44;;;;;;;14.07;12.15;;;;;;;34.55;41.89;100084.23;1732401;82;25579;-60
2023/09/12 08:31:15;;;;;;;16.55;11.95;;;;;;;34.71;41.53;100085.19;1732433;82;25593;-64
2023/09/12 08:33:41;;;;;;;14.45;11.48;;;;;;;34.97;40.79;100088.23;1732336;82;25416;-64
2023/09/12 08:36:07;;;;;;;17.07;11.97;;;;;;;35.04;39.67;100089.09;1732452;82;25425;-64
2023/09/12 08:38:34;;;;;;;13.85;11.63;;;;;;;35.21;39.28;100083.76;1732399;82;29699;-63
2023/09/12 08:41:05;;;;;;;14.20;12.00;;;;;;;35.44;39.02;100086.34;1732357;82;25623;-64
2023/09/12 08:43:39;;;;;;;64.82;60.25;;;;;;;35.66;39.03;100081.06;1732382;82;25501;-63
2023/09/12 08:46:10;;;;;;;63.38;59.42;;;;;;;35.94;38.02;100079.30;1732386;82;25610;-64
2023/09/12 08:48:42;;;;;;;63.85;59.93;;;;;;;35.98;37.22;100084.71;1703442;82;25422;-62
2023/09/12 08:51:12;;;;;;;63.95;59.98;;;;;;;36.03;37.11;100089.03;1732550;82;27775;-63
2023/09/12 08:53:39;;;;;;;63.25;59.23;;;;;;;36.30;36.64;100082.08;1732343;82;25643;-60
2023/09/12 08:56:12;;;;;;;62.73;58.33;;;;;;;36.54;36.51;100075.59;1732379;82;25455;-63
2023/09/12 08:58:43;;;;;;;66.80;62.17;;;;;;;36.86;35.89;100079.91;1732316;82;25867;-64
2023/09/12 09:01:16;;;;;;;65.95;61.68;;;;;;;30.94;35.46;99117.52;1732480;82;25633;-63
2023/09/12 09:03:47;;;;;;;69.10;64.55;;;;;;;37.21;34.17;100080.38;1732417;82;26949;-61
2023/09/12 09:06:20;;;;;;;64.60;60.50;;;;;;;37.29;34.05;100081.48;1732380;82;26175;-60
2023/09/12 09:08:50;;;;;;;62.13;58.30;;;;;;;37.62;34.15;100076.58;1732468;82;25524;-62
2023/09/12 09:11:20;;;;;;;61.50;57.70;;;;;;;37.94;33.83;100075.25;1732344;82;25593;-61
2023/09/12 09:13:49;;;;;;;62.75;58.85;;;;;;;38.25;33.17;100077.84;1732530;82;25519;-63
2023/09/12 09:16:22;;;;;;;62.93;59.13;;;;;;;38.54;32.74;100071.65;1732693;82;27270;-62
2023/09/12 09:19:10;;;;;;;63.48;59.53;;;;;;;38.55;31.90;100069.59;1732415;82;25500;-56
2023/09/12 09:21:40;;;;;;;15.78;10.08;;;;;;;38.68;31.80;100072.08;1732664;82;25508;-57
2023/09/12 09:24:19;;;;;;;12.28;8.78;;;;;;;38.82;31.56;100075.98;1732373;82;25589;-57
2023/09/12 09:27:00;;;;;;;12.45;10.50;;;;;;;38.78;32.24;100066.97;1730883;82;25395;-58
2023/09/12 09:29:33;;;;;;;14.18;11.05;;;;;;;38.72;31.96;100066.83;1731893;82;27204;-60
2023/09/12 09:32:01;;;;;;;10.40;9.40;;;;;;;38.94;31.56;100071.11;1730933;82;25905;-57
2023/09/12 09:34:31;;;;;;;13.20;10.68;;;;;;;39.03;30.85;100068.02;1732405;82;25474;-57
2023/09/12 09:37:04;;;;;;;12.82;9.60;;;;;;;39.10;30.60;100064.59;1732256;82;27729;-56
2023/09/12 09:39:31;;;;;;;10.80;9.30;;;;;;;39.26;30.47;100066.63;1703356;82;25526;-59
2023/09/12 09:41:59;;;;;;;9.53;8.50;;;;;;;39.08;28.86;100061.48;1732511;82;27445;-59
2023/09/12 09:44:30;;;;;;;12.58;10.28;;;;;;;38.63;28.91;100060.13;1732514;82;25475;-60
2023/09/12 09:47:02;;;;;;;10.08;9.13;;;;;;;38.28;28.60;100069.78;1732347;82;25382;-58
2023/09/12 09:49:35;;;;;;;13.53;9.28;;;;;;;38.17;28.97;100070.38;1732352;82;25588;-59
2023/09/12 09:52:10;;;;;;;10.63;9.53;;;;;;;38.25;28.35;100072.84;1732381;82;25393;-58
2023/09/12 09:54:49;;;;;;;10.55;9.43;;;;;;;38.03;28.35;100066.44;1732423;82;27393;-57
2023/09/12 09:57:14;;;;;;;9.88;8.88;;;;;;;38.10;28.97;100063.13;1731135;82;25519;-58
2023/09/12 09:59:42;;;;;;;9.95;9.05;;;;;;;38.40;28.79;100063.53;1703439;82;25507;-57
2023/09/12 10:02:16;;;;;;;9.90;8.70;;;;;;;38.46;27.64;100063.53;1732289;82;26122;-58
2023/09/12 10:04:47;;;;;;;13.62;9.48;;;;;;;38.60;28.06;100056.94;1732415;82;25354;-58
2023/09/12 10:07:18;;;;;;;14.28;10.03;;;;;;;38.86;28.11;100058.77;1732350;82;27370;-58
2023/09/12 10:09:49;;;;;;;10.72;9.63;;;;;;;39.01;27.98;100055.05;1732241;82;25524;-58
2023/09/12 10:12:20;;;;;;;11.45;9.63;;;;;;;39.39;27.50;100052.73;1703372;82;25392;-58
2023/09/12 10:14:51;;;;;;;12.28;8.78;;;;;;;39.56;26.26;100047.72;1732338;82;25493;-60
2023/09/12 10:17:22;;;;;;;10.10;9.08;;;;;;;38.86;25.57;100052.46;1732360;82;25478;-62
2023/09/12 10:19:57;;;;;;;10.85;9.80;;;;;;;38.11;25.12;100052.74;1732151;82;27991;-63
2023/09/12 10:22:42;;;;;;;10.03;9.00;;;;;;;37.26;25.33;100053.52;1732221;82;25526;-59
2023/09/12 10:25:13;;;;;;;13.32;12.00;;;;;;;36.67;26.76;100050.50;1726916;83;25378;-57
2023/09/12 10:27:42;;;;;;;11.08;9.60;;;;;;;36.52;27.25;100047.78;1726834;83;25612;-58
2023/09/12 10:30:17;;;;;;;10.68;9.55;;;;;;;36.30;27.53;100051.88;1726901;83;25507;-58
2023/09/12 10:32:48;;;;;;;10.05;9.03;;;;;;;35.90;27.54;100045.74;1726919;83;27963;-58
2023/09/12 10:35:19;;;;;;;10.63;9.58;;;;;;;35.75;28.00;100050.66;1726768;83;25530;-58
2023/09/12 10:37:50;;;;;;;10.85;9.85;;;;;;;36.13;29.01;100048.06;1726836;83;25423;-59
2023/09/12 10:40:23;;;;;;;10.72;9.35;;;;;;;36.61;28.39;100043.41;1726852;83;25552;-58
2023/09/12 10:42:54;;;;;;;10.23;9.15;;;;;;;36.61;27.91;100045.58;1726808;83;25560;-59
2023/09/12 10:45:24;;;;;;;10.80;9.45;;;;;;;36.43;27.93;100042.44;1726812;83;27385;-56
2023/09/12 10:47:54;;;;;;;12.18;8.55;;;;;;;36.40;28.20;100044.83;1726769;83;26086;-57
2023/09/12 10:50:21;;;;;;;10.10;9.10;;;;;;;36.30;28.03;100037.03;1726848;83;25520;-63
2023/09/12 10:52:49;;;;;;;14.37;10.50;;;;;;;35.98;28.14;100039.69;1727074;83;25480;-66
2023/09/12 10:55:20;;;;;;;12.80;8.60;;;;;;;35.52;28.65;100043.28;1727174;83;25524;-65
2023/09/12 10:58:11;;;;;;;9.53;8.48;;;;;;;35.41;30.08;100036.07;1726863;83;27478;-66
2023/09/12 11:00:40;;;;;;;11.43;9.28;;;;;;;35.63;30.16;100028.59;1726855;83;25152;-66
2023/09/12 11:03:33;;;;;;;10.05;8.83;;;;;;;35.67;29.89;100026.98;1726861;83;25282;-66
2023/09/12 11:06:05;;;;;;;12.78;10.03;;;;;;;35.77;29.04;100029.06;1721554;83;25382;-66
2023/09/12 11:08:41;;;;;;;19.57;17.57;;;;;;;35.33;27.61;100027.89;1726943;83;25480;-65
2023/09/12 11:11:22;;;;;;;17.60;13.53;;;;;;;34.89;28.43;100026.66;1726867;83;27559;-64
2023/09/12 11:14:09;;;;;;;10.98;9.65;;;;;;;35.03;29.42;100021.53;1726782;83;25467;-63
2023/09/12 11:16:37;;;;;;;14.05;10.10;;;;;;;35.77;28.51;100024.84;1726908;83;25390;-64
2023/09/12 11:19:26;;;;;;;11.17;9.50;;;;;;;35.97;27.96;100025.50;1727056;83;25453;-64